Post, TX

2:46 AM CDT en Octubre 25, 2014 (GMT -0500)
WT_Meso Post 1S | Change Station
CLOSE
Current Station
Estación meteorológica personal
Location: Post, TX
Altura: 2598 ft
Estaciones meteorológicas cercanas

Alt 2598 ft 33.20 °N, 101.37 °W | Updated 51 minutes ago

Despejado
Despejado
67 ° F
Sensación térmica 67 ° F
N
9
Viento Variable Viento desde SSO
Gusts 13.0 mph

Hoy
Alta -- | Baja -- ° F
--% Posibilidad de precipitaciones
Ayer
Alta -- | Baja -- ° F
Precip. -- pul
7:57 AM 7:00 PM
Luna nueva, 2% visible
Presión 30.04 pul
Visibilidad 10.0 Millas
Nubes Despejado
Punto de rocío 51 ° F
Humedad 56%
Precipitaciones -999.00 pul
Espesor de la nieve No disponible.
UV 0 de una escala de 12
Polen 6.10 de una escala de 12
Calidad del aire No disponible.
Flu Activity Local Activity
METAR KLBB 250653Z 24005KT 10SM CLR 16/09 A3016 RMK AO2 SLP170 T01610094

More Conditions Fewer Conditions

Presión 30.04 pul
Visibilidad 10.0 Millas
Nubes Despejado
Punto de rocío 51 ° F
Humedad 56%
Precipitaciones -999.00 pul
Espesor de la nieve No disponible.
UV 0 de una escala de 12
Polen 6.10 de una escala de 12
Calidad del aire No disponible.
Flu Activity Local Activity
METAR KLBB 250653Z 24005KT 10SM CLR 16/09 A3016 RMK AO2 SLP170 T01610094

More Conditions Fewer Conditions

10-Day Weather Forecast

Almanac

Astronomía

Oct. 25, 2014 Salida Puesta
Hora real 7:57 AM CDT 7:00 PM CDT
Crepúsculo civil 7:32 AM CDT 7:26 PM CDT
Crepúsculo náutico 7:03 AM CDT 7:55 PM CDT
Crepúsculo astronómico 6:34 AM CDT 8:23 PM CDT
Luna 9:34 AM CDT 8:29 PM CDT
Horas de luz 11h 53m
Horas de luz
11h 02m
Tomorrow will be 1m 52s shorter.
Luna nueva, 2% of the Moon is Illuminated
Hoy
Luna nueva
Oct 30
Cuarto creciente
Nov 6
Luna llena
Nov 14
Cuarto menguante
Nov 22
Nueva

Extremos de hoy

Máximos del estado Bajos del estado

Community

WunderPhotos

Upload Photos

1,764,791 ¡fotos cargadas!

Nearby

Grosos de nieve

Estación Profundido Altura
No tenemos constancia de nieve nueva.

Actividad de terremotos

Ciudad Distance Mag. Tiempo y dato
No hay informes recientes de la actividad sísmica.
Magnitud mínima muestra es 2,5.

Temperaturas de aguas costeras

Lugar Temperatura
Sin partes meteorológicos de las estaciones

Estaciones meteorológicas cercanas